sensor_id;sensor_type;location;lat;lon;timestamp;P1;durP1;ratioP1;P2;durP2;ratioP2
44578;SDS011;37422;51.402;0.016;2022-07-29T00:00:18;7.63;;;2.58;;
44578;SDS011;37422;51.402;0.016;2022-07-29T00:02:46;4.72;;;2.20;;
44578;SDS011;37422;51.402;0.016;2022-07-29T00:05:14;11.85;;;3.17;;
44578;SDS011;37422;51.402;0.016;2022-07-29T00:07:41;6.90;;;2.40;;
44578;SDS011;37422;51.402;0.016;2022-07-29T00:10:09;7.80;;;2.50;;
44578;SDS011;37422;51.402;0.016;2022-07-29T00:12:37;5.80;;;2.25;;
44578;SDS011;37422;51.402;0.016;2022-07-29T00:15:05;11.63;;;3.05;;
44578;SDS011;37422;51.402;0.016;2022-07-29T00:17:34;9.32;;;3.40;;
44578;SDS011;37422;51.402;0.016;2022-07-29T00:20:01;3.78;;;2.42;;
44578;SDS011;37422;51.402;0.016;2022-07-29T00:22:30;7.65;;;3.25;;
44578;SDS011;37422;51.402;0.016;2022-07-29T00:24:58;9.73;;;2.70;;
44578;SDS011;37422;51.402;0.016;2022-07-29T00:27:25;7.60;;;2.75;;
44578;SDS011;37422;51.402;0.016;2022-07-29T00:29:53;11.20;;;3.42;;
44578;SDS011;37422;51.402;0.016;2022-07-29T00:32:20;12.93;;;2.80;;
44578;SDS011;37422;51.402;0.016;2022-07-29T00:34:48;6.72;;;3.30;;
44578;SDS011;37422;51.402;0.016;2022-07-29T00:37:34;8.10;;;3.08;;
44578;SDS011;37422;51.402;0.016;2022-07-29T00:40:02;10.18;;;3.00;;
44578;SDS011;37422;51.402;0.016;2022-07-29T00:42:30;10.40;;;2.97;;
44578;SDS011;37422;51.402;0.016;2022-07-29T00:44:57;12.50;;;2.50;;
44578;SDS011;37422;51.402;0.016;2022-07-29T00:47:25;12.15;;;3.42;;
44578;SDS011;37422;51.402;0.016;2022-07-29T00:49:53;8.40;;;2.92;;
44578;SDS011;37422;51.402;0.016;2022-07-29T00:52:20;6.50;;;3.20;;
44578;SDS011;37422;51.402;0.016;2022-07-29T00:54:48;10.93;;;4.13;;
44578;SDS011;37422;51.402;0.016;2022-07-29T00:57:16;8.82;;;3.28;;
44578;SDS011;37422;51.402;0.016;2022-07-29T00:59:43;13.60;;;3.50;;
44578;SDS011;37422;51.402;0.016;2022-07-29T01:02:11;11.07;;;4.10;;
44578;SDS011;37422;51.402;0.016;2022-07-29T01:04:39;7.95;;;3.35;;
44578;SDS011;37422;51.402;0.016;2022-07-29T01:07:08;13.38;;;4.28;;
44578;SDS011;37422;51.402;0.016;2022-07-29T01:09:37;21.20;;;3.95;;
44578;SDS011;37422;51.402;0.016;2022-07-29T01:12:13;8.65;;;3.47;;
44578;SDS011;37422;51.402;0.016;2022-07-29T01:14:44;14.70;;;3.47;;
44578;SDS011;37422;51.402;0.016;2022-07-29T01:17:27;9.57;;;4.10;;
44578;SDS011;37422;51.402;0.016;2022-07-29T01:31:04;11.52;;;4.63;;
44578;SDS011;37422;51.402;0.016;2022-07-29T01:33:41;10.13;;;3.92;;
44578;SDS011;37422;51.402;0.016;2022-07-29T01:39:47;10.93;;;4.18;;
44578;SDS011;37422;51.402;0.016;2022-07-29T01:44:56;9.75;;;4.25;;
44578;SDS011;37422;51.402;0.016;2022-07-29T01:47:39;10.77;;;4.30;;
44578;SDS011;37422;51.402;0.016;2022-07-29T01:50:20;10.20;;;4.03;;
44578;SDS011;37422;51.402;0.016;2022-07-29T01:52:54;13.95;;;4.13;;
44578;SDS011;37422;51.402;0.016;2022-07-29T01:55:27;9.88;;;4.55;;
44578;SDS011;37422;51.402;0.016;2022-07-29T01:57:58;11.48;;;4.43;;
44578;SDS011;37422;51.402;0.016;2022-07-29T02:00:28;9.23;;;3.60;;
44578;SDS011;37422;51.402;0.016;2022-07-29T02:05:29;9.57;;;3.88;;
44578;SDS011;37422;51.402;0.016;2022-07-29T02:07:58;13.35;;;4.10;;
44578;SDS011;37422;51.402;0.016;2022-07-29T02:10:28;12.90;;;4.30;;
44578;SDS011;37422;51.402;0.016;2022-07-29T02:12:58;7.65;;;4.03;;
44578;SDS011;37422;51.402;0.016;2022-07-29T02:15:27;8.85;;;4.03;;
44578;SDS011;37422;51.402;0.016;2022-07-29T02:18:01;12.48;;;4.47;;
44578;SDS011;37422;51.402;0.016;2022-07-29T02:20:38;7.65;;;3.92;;
44578;SDS011;37422;51.402;0.016;2022-07-29T02:23:07;11.95;;;5.18;;
44578;SDS011;37422;51.402;0.016;2022-07-29T02:25:37;10.57;;;4.03;;
44578;SDS011;37422;51.402;0.016;2022-07-29T02:28:06;12.35;;;3.75;;
44578;SDS011;37422;51.402;0.016;2022-07-29T02:30:39;10.90;;;3.55;;
44578;SDS011;37422;51.402;0.016;2022-07-29T02:33:09;12.02;;;4.55;;
44578;SDS011;37422;51.402;0.016;2022-07-29T02:35:40;11.85;;;4.30;;
44578;SDS011;37422;51.402;0.016;2022-07-29T02:38:10;10.23;;;4.13;;
44578;SDS011;37422;51.402;0.016;2022-07-29T02:41:00;16.65;;;3.85;;
44578;SDS011;37422;51.402;0.016;2022-07-29T02:43:30;12.45;;;4.30;;
44578;SDS011;37422;51.402;0.016;2022-07-29T02:46:00;5.78;;;3.38;;
44578;SDS011;37422;51.402;0.016;2022-07-29T02:49:04;10.57;;;3.58;;
44578;SDS011;37422;51.402;0.016;2022-07-29T02:51:42;10.73;;;4.28;;
44578;SDS011;37422;51.402;0.016;2022-07-29T02:54:20;8.63;;;3.50;;
44578;SDS011;37422;51.402;0.016;2022-07-29T02:56:53;5.70;;;3.10;;
44578;SDS011;37422;51.402;0.016;2022-07-29T02:59:23;11.25;;;4.00;;
44578;SDS011;37422;51.402;0.016;2022-07-29T03:01:54;10.32;;;3.80;;
44578;SDS011;37422;51.402;0.016;2022-07-29T03:04:24;14.90;;;5.38;;
44578;SDS011;37422;51.402;0.016;2022-07-29T03:06:56;11.02;;;3.72;;
44578;SDS011;37422;51.402;0.016;2022-07-29T03:09:26;12.57;;;3.47;;
44578;SDS011;37422;51.402;0.016;2022-07-29T03:11:55;11.60;;;3.00;;
44578;SDS011;37422;51.402;0.016;2022-07-29T03:14:27;9.73;;;3.67;;
44578;SDS011;37422;51.402;0.016;2022-07-29T03:16:55;11.00;;;4.05;;
44578;SDS011;37422;51.402;0.016;2022-07-29T03:19:24;10.15;;;3.60;;
44578;SDS011;37422;51.402;0.016;2022-07-29T03:21:54;8.43;;;3.30;;
44578;SDS011;37422;51.402;0.016;2022-07-29T03:26:52;11.48;;;3.75;;
44578;SDS011;37422;51.402;0.016;2022-07-29T03:29:19;11.50;;;3.75;;
44578;SDS011;37422;51.402;0.016;2022-07-29T03:31:47;9.02;;;3.80;;
44578;SDS011;37422;51.402;0.016;2022-07-29T03:34:15;9.35;;;3.42;;
44578;SDS011;37422;51.402;0.016;2022-07-29T03:36:43;12.48;;;3.50;;
44578;SDS011;37422;51.402;0.016;2022-07-29T03:39:11;11.70;;;3.03;;
44578;SDS011;37422;51.402;0.016;2022-07-29T03:41:43;9.18;;;3.70;;
44578;SDS011;37422;51.402;0.016;2022-07-29T03:44:13;7.57;;;3.25;;
44578;SDS011;37422;51.402;0.016;2022-07-29T03:46:44;8.60;;;3.67;;
44578;SDS011;37422;51.402;0.016;2022-07-29T03:49:13;8.77;;;3.15;;
44578;SDS011;37422;51.402;0.016;2022-07-29T03:51:43;5.22;;;3.35;;
44578;SDS011;37422;51.402;0.016;2022-07-29T03:54:11;3.83;;;3.00;;
44578;SDS011;37422;51.402;0.016;2022-07-29T03:56:41;10.25;;;3.50;;
44578;SDS011;37422;51.402;0.016;2022-07-29T03:59:13;8.57;;;4.22;;
44578;SDS011;37422;51.402;0.016;2022-07-29T04:01:42;9.30;;;3.85;;
44578;SDS011;37422;51.402;0.016;2022-07-29T04:04:10;9.82;;;3.38;;
44578;SDS011;37422;51.402;0.016;2022-07-29T04:09:07;7.43;;;3.35;;
44578;SDS011;37422;51.402;0.016;2022-07-29T04:11:36;8.45;;;3.28;;
44578;SDS011;37422;51.402;0.016;2022-07-29T04:14:25;8.73;;;3.67;;
44578;SDS011;37422;51.402;0.016;2022-07-29T04:16:56;11.25;;;3.50;;
44578;SDS011;37422;51.402;0.016;2022-07-29T04:19:23;9.10;;;3.65;;
44578;SDS011;37422;51.402;0.016;2022-07-29T04:21:51;12.65;;;3.67;;
44578;SDS011;37422;51.402;0.016;2022-07-29T04:24:19;11.95;;;4.30;;
44578;SDS011;37422;51.402;0.016;2022-07-29T04:26:47;6.32;;;3.80;;
44578;SDS011;37422;51.402;0.016;2022-07-29T04:29:15;9.30;;;3.72;;
44578;SDS011;37422;51.402;0.016;2022-07-29T04:31:43;9.77;;;3.83;;
44578;SDS011;37422;51.402;0.016;2022-07-29T04:34:11;6.32;;;3.78;;
44578;SDS011;37422;51.402;0.016;2022-07-29T04:36:40;9.57;;;4.35;;
44578;SDS011;37422;51.402;0.016;2022-07-29T04:39:07;13.98;;;4.10;;
44578;SDS011;37422;51.402;0.016;2022-07-29T04:41:35;10.23;;;3.72;;
44578;SDS011;37422;51.402;0.016;2022-07-29T04:44:04;10.52;;;4.38;;
44578;SDS011;37422;51.402;0.016;2022-07-29T04:46:33;8.75;;;3.50;;
44578;SDS011;37422;51.402;0.016;2022-07-29T04:49:02;10.48;;;4.20;;
44578;SDS011;37422;51.402;0.016;2022-07-29T04:51:30;7.82;;;4.13;;
44578;SDS011;37422;51.402;0.016;2022-07-29T04:53:58;9.98;;;4.45;;
44578;SDS011;37422;51.402;0.016;2022-07-29T04:56:26;8.05;;;3.90;;
44578;SDS011;37422;51.402;0.016;2022-07-29T04:58:54;7.90;;;4.13;;
44578;SDS011;37422;51.402;0.016;2022-07-29T05:01:22;7.15;;;4.82;;
44578;SDS011;37422;51.402;0.016;2022-07-29T05:03:49;9.00;;;4.25;;
44578;SDS011;37422;51.402;0.016;2022-07-29T05:06:21;6.03;;;3.75;;
44578;SDS011;37422;51.402;0.016;2022-07-29T05:08:49;12.40;;;5.82;;
44578;SDS011;37422;51.402;0.016;2022-07-29T05:11:17;14.48;;;5.18;;
44578;SDS011;37422;51.402;0.016;2022-07-29T05:13:48;12.65;;;5.50;;
44578;SDS011;37422;51.402;0.016;2022-07-29T05:16:16;7.43;;;3.75;;
44578;SDS011;37422;51.402;0.016;2022-07-29T05:18:43;6.47;;;3.63;;
44578;SDS011;37422;51.402;0.016;2022-07-29T05:21:11;10.65;;;4.60;;
44578;SDS011;37422;51.402;0.016;2022-07-29T05:23:39;7.20;;;3.97;;
44578;SDS011;37422;51.402;0.016;2022-07-29T05:26:06;12.57;;;4.13;;
44578;SDS011;37422;51.402;0.016;2022-07-29T05:28:34;14.20;;;4.72;;
44578;SDS011;37422;51.402;0.016;2022-07-29T05:31:02;9.60;;;4.25;;
44578;SDS011;37422;51.402;0.016;2022-07-29T05:33:29;5.95;;;3.85;;
44578;SDS011;37422;51.402;0.016;2022-07-29T05:36:03;9.73;;;3.95;;
44578;SDS011;37422;51.402;0.016;2022-07-29T05:38:34;10.43;;;4.68;;
44578;SDS011;37422;51.402;0.016;2022-07-29T05:41:03;9.38;;;4.00;;
44578;SDS011;37422;51.402;0.016;2022-07-29T05:43:32;9.35;;;4.28;;
44578;SDS011;37422;51.402;0.016;2022-07-29T05:46:00;13.40;;;6.03;;
44578;SDS011;37422;51.402;0.016;2022-07-29T05:48:28;14.57;;;4.43;;
44578;SDS011;37422;51.402;0.016;2022-07-29T05:50:55;11.20;;;4.95;;
44578;SDS011;37422;51.402;0.016;2022-07-29T05:53:23;14.27;;;4.88;;
44578;SDS011;37422;51.402;0.016;2022-07-29T05:55:51;10.40;;;3.80;;
44578;SDS011;37422;51.402;0.016;2022-07-29T05:58:19;9.32;;;4.13;;
44578;SDS011;37422;51.402;0.016;2022-07-29T06:00:47;9.10;;;4.90;;
44578;SDS011;37422;51.402;0.016;2022-07-29T06:03:15;13.68;;;3.92;;
44578;SDS011;37422;51.402;0.016;2022-07-29T06:05:42;10.85;;;4.35;;
44578;SDS011;37422;51.402;0.016;2022-07-29T06:08:10;8.25;;;4.05;;
44578;SDS011;37422;51.402;0.016;2022-07-29T06:10:38;9.23;;;3.13;;
44578;SDS011;37422;51.402;0.016;2022-07-29T06:13:05;13.18;;;4.03;;
44578;SDS011;37422;51.402;0.016;2022-07-29T06:15:33;9.52;;;3.03;;
44578;SDS011;37422;51.402;0.016;2022-07-29T06:18:01;9.70;;;3.45;;
44578;SDS011;37422;51.402;0.016;2022-07-29T06:20:29;12.90;;;3.80;;
44578;SDS011;37422;51.402;0.016;2022-07-29T06:22:58;11.95;;;3.22;;
44578;SDS011;37422;51.402;0.016;2022-07-29T06:25:27;11.38;;;2.88;;
44578;SDS011;37422;51.402;0.016;2022-07-29T06:27:59;8.27;;;3.20;;
44578;SDS011;37422;51.402;0.016;2022-07-29T06:30:26;9.40;;;2.88;;
44578;SDS011;37422;51.402;0.016;2022-07-29T06:32:55;13.07;;;4.22;;
44578;SDS011;37422;51.402;0.016;2022-07-29T06:35:23;9.90;;;3.13;;
44578;SDS011;37422;51.402;0.016;2022-07-29T06:38:08;10.65;;;2.80;;
44578;SDS011;37422;51.402;0.016;2022-07-29T06:40:56;10.98;;;3.58;;
44578;SDS011;37422;51.402;0.016;2022-07-29T06:43:35;8.55;;;3.00;;
44578;SDS011;37422;51.402;0.016;2022-07-29T06:48:46;14.80;;;3.00;;
44578;SDS011;37422;51.402;0.016;2022-07-29T06:51:15;11.35;;;3.10;;
44578;SDS011;37422;51.402;0.016;2022-07-29T06:53:50;15.85;;;3.25;;
44578;SDS011;37422;51.402;0.016;2022-07-29T06:56:29;11.10;;;2.97;;
44578;SDS011;37422;51.402;0.016;2022-07-29T06:59:06;22.02;;;3.60;;
44578;SDS011;37422;51.402;0.016;2022-07-29T07:01:35;10.73;;;3.13;;
44578;SDS011;37422;51.402;0.016;2022-07-29T07:04:04;12.57;;;3.28;;
44578;SDS011;37422;51.402;0.016;2022-07-29T07:06:32;14.10;;;3.15;;
44578;SDS011;37422;51.402;0.016;2022-07-29T07:08:59;14.48;;;3.13;;
44578;SDS011;37422;51.402;0.016;2022-07-29T07:11:27;17.25;;;3.92;;
44578;SDS011;37422;51.402;0.016;2022-07-29T07:13:55;18.98;;;3.50;;
44578;SDS011;37422;51.402;0.016;2022-07-29T07:16:29;10.32;;;3.17;;
44578;SDS011;37422;51.402;0.016;2022-07-29T07:18:58;12.32;;;3.15;;
44578;SDS011;37422;51.402;0.016;2022-07-29T07:21:28;13.32;;;3.08;;
44578;SDS011;37422;51.402;0.016;2022-07-29T07:23:57;15.18;;;3.00;;
44578;SDS011;37422;51.402;0.016;2022-07-29T07:26:26;14.60;;;3.20;;
44578;SDS011;37422;51.402;0.016;2022-07-29T07:28:54;10.25;;;2.78;;
44578;SDS011;37422;51.402;0.016;2022-07-29T07:31:22;10.30;;;3.72;;
44578;SDS011;37422;51.402;0.016;2022-07-29T07:33:51;22.45;;;4.72;;
44578;SDS011;37422;51.402;0.016;2022-07-29T07:36:20;11.73;;;3.50;;
44578;SDS011;37422;51.402;0.016;2022-07-29T07:38:48;17.08;;;4.30;;
44578;SDS011;37422;51.402;0.016;2022-07-29T07:41:16;14.50;;;3.92;;
44578;SDS011;37422;51.402;0.016;2022-07-29T07:43:43;11.95;;;3.45;;
44578;SDS011;37422;51.402;0.016;2022-07-29T07:46:11;13.77;;;2.83;;
44578;SDS011;37422;51.402;0.016;2022-07-29T07:48:39;13.45;;;3.10;;
44578;SDS011;37422;51.402;0.016;2022-07-29T07:51:06;13.35;;;3.20;;
44578;SDS011;37422;51.402;0.016;2022-07-29T07:53:34;10.77;;;3.28;;
44578;SDS011;37422;51.402;0.016;2022-07-29T07:56:02;12.77;;;3.28;;
44578;SDS011;37422;51.402;0.016;2022-07-29T07:58:37;9.77;;;3.50;;
44578;SDS011;37422;51.402;0.016;2022-07-29T08:01:06;9.18;;;2.75;;
44578;SDS011;37422;51.402;0.016;2022-07-29T08:03:34;10.50;;;2.70;;
44578;SDS011;37422;51.402;0.016;2022-07-29T08:06:02;9.88;;;2.63;;
44578;SDS011;37422;51.402;0.016;2022-07-29T08:08:30;11.38;;;3.00;;
44578;SDS011;37422;51.402;0.016;2022-07-29T08:10:58;8.50;;;3.03;;
44578;SDS011;37422;51.402;0.016;2022-07-29T08:13:35;8.15;;;2.60;;
44578;SDS011;37422;51.402;0.016;2022-07-29T08:16:05;10.07;;;3.40;;
44578;SDS011;37422;51.402;0.016;2022-07-29T08:18:40;8.32;;;2.40;;
44578;SDS011;37422;51.402;0.016;2022-07-29T08:21:11;10.57;;;2.63;;
44578;SDS011;37422;51.402;0.016;2022-07-29T08:26:24;7.07;;;2.25;;
44578;SDS011;37422;51.402;0.016;2022-07-29T08:28:52;12.32;;;3.10;;
44578;SDS011;37422;51.402;0.016;2022-07-29T08:31:20;10.80;;;2.70;;
44578;SDS011;37422;51.402;0.016;2022-07-29T08:33:47;11.20;;;3.15;;
44578;SDS011;37422;51.402;0.016;2022-07-29T08:36:15;13.32;;;3.00;;
44578;SDS011;37422;51.402;0.016;2022-07-29T08:38:43;11.77;;;2.97;;
44578;SDS011;37422;51.402;0.016;2022-07-29T08:41:10;7.75;;;2.25;;
44578;SDS011;37422;51.402;0.016;2022-07-29T08:43:39;11.23;;;2.53;;
44578;SDS011;37422;51.402;0.016;2022-07-29T08:46:08;12.40;;;2.78;;
44578;SDS011;37422;51.402;0.016;2022-07-29T08:48:45;13.77;;;3.15;;
44578;SDS011;37422;51.402;0.016;2022-07-29T08:51:17;12.48;;;3.50;;
44578;SDS011;37422;51.402;0.016;2022-07-29T08:53:47;9.40;;;3.28;;
44578;SDS011;37422;51.402;0.016;2022-07-29T08:56:16;8.25;;;2.85;;
44578;SDS011;37422;51.402;0.016;2022-07-29T08:58:46;11.57;;;2.47;;
44578;SDS011;37422;51.402;0.016;2022-07-29T09:01:21;10.95;;;2.40;;
44578;SDS011;37422;51.402;0.016;2022-07-29T09:04:03;10.80;;;2.47;;
44578;SDS011;37422;51.402;0.016;2022-07-29T09:06:34;9.20;;;2.92;;
44578;SDS011;37422;51.402;0.016;2022-07-29T09:09:07;9.10;;;2.97;;
44578;SDS011;37422;51.402;0.016;2022-07-29T09:11:35;10.95;;;2.28;;
44578;SDS011;37422;51.402;0.016;2022-07-29T09:14:04;5.57;;;2.08;;
44578;SDS011;37422;51.402;0.016;2022-07-29T09:16:49;9.20;;;2.60;;
44578;SDS011;37422;51.402;0.016;2022-07-29T09:19:24;8.35;;;2.13;;
44578;SDS011;37422;51.402;0.016;2022-07-29T09:21:56;11.02;;;2.30;;
44578;SDS011;37422;51.402;0.016;2022-07-29T09:26:54;10.90;;;3.20;;
44578;SDS011;37422;51.402;0.016;2022-07-29T09:29:23;8.45;;;2.80;;
44578;SDS011;37422;51.402;0.016;2022-07-29T09:32:00;8.00;;;2.55;;
44578;SDS011;37422;51.402;0.016;2022-07-29T09:34:30;10.13;;;2.80;;
44578;SDS011;37422;51.402;0.016;2022-07-29T09:36:58;11.98;;;2.90;;
44578;SDS011;37422;51.402;0.016;2022-07-29T09:39:30;13.23;;;3.15;;
44578;SDS011;37422;51.402;0.016;2022-07-29T09:42:13;6.65;;;2.40;;
44578;SDS011;37422;51.402;0.016;2022-07-29T09:44:53;9.57;;;2.95;;
44578;SDS011;37422;51.402;0.016;2022-07-29T09:47:21;10.20;;;2.67;;
44578;SDS011;37422;51.402;0.016;2022-07-29T09:49:56;10.73;;;2.92;;
44578;SDS011;37422;51.402;0.016;2022-07-29T09:52:26;8.50;;;2.13;;
44578;SDS011;37422;51.402;0.016;2022-07-29T09:55:08;10.73;;;2.60;;
44578;SDS011;37422;51.402;0.016;2022-07-29T09:57:44;7.97;;;3.05;;
44578;SDS011;37422;51.402;0.016;2022-07-29T10:00:14;12.27;;;2.95;;
44578;SDS011;37422;51.402;0.016;2022-07-29T10:02:44;8.98;;;2.78;;
44578;SDS011;37422;51.402;0.016;2022-07-29T10:05:24;6.22;;;2.00;;
44578;SDS011;37422;51.402;0.016;2022-07-29T10:08:03;10.27;;;2.30;;
44578;SDS011;37422;51.402;0.016;2022-07-29T10:10:31;5.47;;;2.13;;
44578;SDS011;37422;51.402;0.016;2022-07-29T10:13:10;8.55;;;1.90;;
44578;SDS011;37422;51.402;0.016;2022-07-29T10:15:42;7.57;;;2.85;;
44578;SDS011;37422;51.402;0.016;2022-07-29T10:18:12;6.13;;;2.38;;
44578;SDS011;37422;51.402;0.016;2022-07-29T10:20:41;5.73;;;1.97;;
44578;SDS011;37422;51.402;0.016;2022-07-29T10:23:09;9.68;;;2.60;;
44578;SDS011;37422;51.402;0.016;2022-07-29T10:25:37;7.57;;;2.38;;
44578;SDS011;37422;51.402;0.016;2022-07-29T10:28:05;8.80;;;2.38;;
44578;SDS011;37422;51.402;0.016;2022-07-29T10:30:32;8.25;;;2.15;;
44578;SDS011;37422;51.402;0.016;2022-07-29T10:33:18;7.72;;;1.85;;
44578;SDS011;37422;51.402;0.016;2022-07-29T10:39:36;7.95;;;1.85;;
44578;SDS011;37422;51.402;0.016;2022-07-29T10:42:28;7.30;;;2.40;;
44578;SDS011;37422;51.402;0.016;2022-07-29T10:45:00;6.93;;;2.40;;
44578;SDS011;37422;51.402;0.016;2022-07-29T10:47:30;7.75;;;2.55;;
44578;SDS011;37422;51.402;0.016;2022-07-29T10:50:02;7.28;;;2.20;;
44578;SDS011;37422;51.402;0.016;2022-07-29T10:55:36;9.65;;;1.90;;
44578;SDS011;37422;51.402;0.016;2022-07-29T10:58:19;6.55;;;1.90;;
44578;SDS011;37422;51.402;0.016;2022-07-29T11:00:49;3.75;;;1.67;;
44578;SDS011;37422;51.402;0.016;2022-07-29T11:06:16;5.72;;;1.83;;
44578;SDS011;37422;51.402;0.016;2022-07-29T11:11:51;8.70;;;3.05;;
44578;SDS011;37422;51.402;0.016;2022-07-29T11:14:54;4.95;;;1.60;;
44578;SDS011;37422;51.402;0.016;2022-07-29T11:19:46;7.72;;;1.83;;
44578;SDS011;37422;51.402;0.016;2022-07-29T11:22:33;5.10;;;1.90;;
44578;SDS011;37422;51.402;0.016;2022-07-29T11:25:14;8.43;;;1.98;;
44578;SDS011;37422;51.402;0.016;2022-07-29T11:27:44;7.38;;;2.05;;
44578;SDS011;37422;51.402;0.016;2022-07-29T11:30:14;4.55;;;1.67;;
44578;SDS011;37422;51.402;0.016;2022-07-29T11:32:42;7.25;;;1.83;;
44578;SDS011;37422;51.402;0.016;2022-07-29T11:35:16;6.45;;;1.92;;
44578;SDS011;37422;51.402;0.016;2022-07-29T11:38:24;7.53;;;1.80;;
44578;SDS011;37422;51.402;0.016;2022-07-29T11:41:44;9.00;;;2.50;;
44578;SDS011;37422;51.402;0.016;2022-07-29T11:43:59;6.00;;;1.90;;
44578;SDS011;37422;51.402;0.016;2022-07-29T11:46:47;7.20;;;2.20;;
44578;SDS011;37422;51.402;0.016;2022-07-29T11:49:23;9.10;;;1.83;;
44578;SDS011;37422;51.402;0.016;2022-07-29T11:51:59;8.27;;;1.83;;
44578;SDS011;37422;51.402;0.016;2022-07-29T11:54:32;4.65;;;1.83;;
44578;SDS011;37422;51.402;0.016;2022-07-29T11:57:21;6.15;;;1.80;;
44578;SDS011;37422;51.402;0.016;2022-07-29T12:00:04;5.80;;;1.60;;
44578;SDS011;37422;51.402;0.016;2022-07-29T12:02:41;5.65;;;1.92;;
44578;SDS011;37422;51.402;0.016;2022-07-29T12:05:15;6.32;;;1.63;;
44578;SDS011;37422;51.402;0.016;2022-07-29T12:08:09;9.13;;;2.15;;
44578;SDS011;37422;51.402;0.016;2022-07-29T12:10:40;2.22;;;1.58;;
44578;SDS011;37422;51.402;0.016;2022-07-29T12:13:09;11.20;;;2.15;;
44578;SDS011;37422;51.402;0.016;2022-07-29T12:15:38;8.55;;;1.90;;
44578;SDS011;37422;51.402;0.016;2022-07-29T12:18:17;5.45;;;1.90;;
44578;SDS011;37422;51.402;0.016;2022-07-29T12:20:59;14.23;;;2.20;;
44578;SDS011;37422;51.402;0.016;2022-07-29T12:23:31;7.82;;;1.92;;
44578;SDS011;37422;51.402;0.016;2022-07-29T12:26:04;8.20;;;2.35;;
44578;SDS011;37422;51.402;0.016;2022-07-29T12:28:37;8.30;;;1.88;;
44578;SDS011;37422;51.402;0.016;2022-07-29T12:31:11;7.80;;;1.92;;
44578;SDS011;37422;51.402;0.016;2022-07-29T12:34:00;8.07;;;2.00;;
44578;SDS011;37422;51.402;0.016;2022-07-29T12:36:28;6.38;;;2.53;;
44578;SDS011;37422;51.402;0.016;2022-07-29T12:38:56;7.47;;;1.98;;
44578;SDS011;37422;51.402;0.016;2022-07-29T12:41:24;5.10;;;1.77;;
44578;SDS011;37422;51.402;0.016;2022-07-29T12:43:52;12.57;;;1.80;;
44578;SDS011;37422;51.402;0.016;2022-07-29T12:46:21;7.80;;;1.77;;
44578;SDS011;37422;51.402;0.016;2022-07-29T12:48:52;9.20;;;1.90;;
44578;SDS011;37422;51.402;0.016;2022-07-29T12:54:10;7.78;;;1.75;;
44578;SDS011;37422;51.402;0.016;2022-07-29T12:56:43;5.78;;;1.60;;
44578;SDS011;37422;51.402;0.016;2022-07-29T12:59:18;6.63;;;2.10;;
44578;SDS011;37422;51.402;0.016;2022-07-29T13:01:50;9.07;;;1.90;;
44578;SDS011;37422;51.402;0.016;2022-07-29T13:04:29;8.93;;;1.90;;
44578;SDS011;37422;51.402;0.016;2022-07-29T13:07:07;6.88;;;2.05;;
44578;SDS011;37422;51.402;0.016;2022-07-29T13:09:40;7.72;;;1.48;;
44578;SDS011;37422;51.402;0.016;2022-07-29T13:12:15;4.40;;;2.10;;
44578;SDS011;37422;51.402;0.016;2022-07-29T13:14:44;4.75;;;1.75;;
44578;SDS011;37422;51.402;0.016;2022-07-29T13:20:03;6.57;;;1.88;;
44578;SDS011;37422;51.402;0.016;2022-07-29T13:22:35;6.07;;;1.80;;
44578;SDS011;37422;51.402;0.016;2022-07-29T13:25:03;6.50;;;1.85;;
44578;SDS011;37422;51.402;0.016;2022-07-29T13:27:35;4.65;;;1.90;;
44578;SDS011;37422;51.402;0.016;2022-07-29T13:30:06;5.82;;;2.22;;
44578;SDS011;37422;51.402;0.016;2022-07-29T13:32:35;5.78;;;1.60;;
44578;SDS011;37422;51.402;0.016;2022-07-29T13:35:05;7.00;;;2.10;;
44578;SDS011;37422;51.402;0.016;2022-07-29T13:37:35;3.97;;;1.55;;
44578;SDS011;37422;51.402;0.016;2022-07-29T13:40:06;5.65;;;2.03;;
44578;SDS011;37422;51.402;0.016;2022-07-29T13:45:03;4.25;;;1.42;;
44578;SDS011;37422;51.402;0.016;2022-07-29T13:47:33;9.15;;;1.65;;
44578;SDS011;37422;51.402;0.016;2022-07-29T13:50:01;8.60;;;2.10;;
44578;SDS011;37422;51.402;0.016;2022-07-29T13:52:33;4.28;;;1.65;;
44578;SDS011;37422;51.402;0.016;2022-07-29T13:55:01;2.75;;;1.85;;
44578;SDS011;37422;51.402;0.016;2022-07-29T13:57:29;5.30;;;1.90;;
44578;SDS011;37422;51.402;0.016;2022-07-29T13:59:57;5.88;;;1.50;;
44578;SDS011;37422;51.402;0.016;2022-07-29T14:02:25;7.68;;;1.80;;
44578;SDS011;37422;51.402;0.016;2022-07-29T14:04:55;6.13;;;1.60;;
44578;SDS011;37422;51.402;0.016;2022-07-29T14:07:23;5.40;;;2.08;;
44578;SDS011;37422;51.402;0.016;2022-07-29T14:09:50;6.85;;;1.95;;
44578;SDS011;37422;51.402;0.016;2022-07-29T14:12:18;5.72;;;1.77;;
44578;SDS011;37422;51.402;0.016;2022-07-29T14:14:46;7.07;;;1.80;;
44578;SDS011;37422;51.402;0.016;2022-07-29T14:17:14;10.43;;;2.17;;
44578;SDS011;37422;51.402;0.016;2022-07-29T14:19:42;11.65;;;2.13;;
44578;SDS011;37422;51.402;0.016;2022-07-29T14:22:10;6.80;;;1.98;;
44578;SDS011;37422;51.402;0.016;2022-07-29T14:24:38;5.85;;;1.88;;
44578;SDS011;37422;51.402;0.016;2022-07-29T14:27:07;6.50;;;2.17;;
44578;SDS011;37422;51.402;0.016;2022-07-29T14:29:35;6.95;;;1.73;;
44578;SDS011;37422;51.402;0.016;2022-07-29T14:34:34;7.10;;;2.05;;
44578;SDS011;37422;51.402;0.016;2022-07-29T14:37:03;4.27;;;2.07;;
44578;SDS011;37422;51.402;0.016;2022-07-29T14:39:33;3.15;;;1.60;;
44578;SDS011;37422;51.402;0.016;2022-07-29T14:42:09;4.07;;;1.60;;
44578;SDS011;37422;51.402;0.016;2022-07-29T14:44:39;6.65;;;2.33;;
44578;SDS011;37422;51.402;0.016;2022-07-29T14:47:08;6.05;;;1.85;;
44578;SDS011;37422;51.402;0.016;2022-07-29T14:49:36;8.90;;;1.80;;
44578;SDS011;37422;51.402;0.016;2022-07-29T14:52:04;4.65;;;1.70;;
44578;SDS011;37422;51.402;0.016;2022-07-29T14:54:31;6.18;;;2.10;;
44578;SDS011;37422;51.402;0.016;2022-07-29T14:56:59;9.18;;;2.10;;
44578;SDS011;37422;51.402;0.016;2022-07-29T14:59:27;6.63;;;2.22;;
44578;SDS011;37422;51.402;0.016;2022-07-29T15:01:55;4.35;;;1.73;;
44578;SDS011;37422;51.402;0.016;2022-07-29T15:04:23;7.32;;;1.80;;
44578;SDS011;37422;51.402;0.016;2022-07-29T15:06:51;6.47;;;2.17;;
44578;SDS011;37422;51.402;0.016;2022-07-29T15:09:18;6.43;;;2.13;;
44578;SDS011;37422;51.402;0.016;2022-07-29T15:11:46;5.43;;;2.22;;
44578;SDS011;37422;51.402;0.016;2022-07-29T15:14:14;4.20;;;2.05;;
44578;SDS011;37422;51.402;0.016;2022-07-29T15:16:41;3.90;;;1.23;;
44578;SDS011;37422;51.402;0.016;2022-07-29T15:19:14;5.70;;;1.88;;
44578;SDS011;37422;51.402;0.016;2022-07-29T15:21:41;7.00;;;1.83;;
44578;SDS011;37422;51.402;0.016;2022-07-29T15:24:15;6.93;;;2.20;;
44578;SDS011;37422;51.402;0.016;2022-07-29T15:26:44;4.78;;;1.60;;
44578;SDS011;37422;51.402;0.016;2022-07-29T15:29:12;5.30;;;1.95;;
44578;SDS011;37422;51.402;0.016;2022-07-29T15:31:40;6.65;;;2.17;;
44578;SDS011;37422;51.402;0.016;2022-07-29T15:34:08;6.18;;;2.15;;
44578;SDS011;37422;51.402;0.016;2022-07-29T15:36:37;9.82;;;2.00;;
44578;SDS011;37422;51.402;0.016;2022-07-29T15:39:20;11.07;;;2.45;;
44578;SDS011;37422;51.402;0.016;2022-07-29T15:41:49;5.70;;;2.20;;
44578;SDS011;37422;51.402;0.016;2022-07-29T15:44:17;7.25;;;2.05;;
44578;SDS011;37422;51.402;0.016;2022-07-29T15:46:47;4.55;;;1.63;;
44578;SDS011;37422;51.402;0.016;2022-07-29T15:52:18;9.05;;;2.22;;
44578;SDS011;37422;51.402;0.016;2022-07-29T15:54:55;7.80;;;2.35;;
44578;SDS011;37422;51.402;0.016;2022-07-29T15:57:27;5.60;;;1.60;;
44578;SDS011;37422;51.402;0.016;2022-07-29T15:59:57;9.57;;;2.08;;
44578;SDS011;37422;51.402;0.016;2022-07-29T16:02:25;6.90;;;1.90;;
44578;SDS011;37422;51.402;0.016;2022-07-29T16:04:53;6.38;;;2.45;;
44578;SDS011;37422;51.402;0.016;2022-07-29T16:07:20;4.38;;;2.03;;